Buoy 44746

sailwx.info

Track history (hours):
 
Tides and Currents Weather Stations Pressure Air Temp Water Temp Dewpoint Dewpoint Depression Visibility Wind Speed Wind Dir Waves Ship Positions

Drifting buoy 44746

Last reported at 2018-May-23 01:00 UTC. Time now 2018-May-23 01:33 UTC.
Position N 29°49' W 044°15'.

Barometer 1026.3 mb
Water temperature 23.9 ° C

Date/timePositionNaut miles runAvg speedWind from/ knotsBaromVisibWave heightAir tempDewpointWater temp
2018-May-23 01:00N 29°49' W 044°15'1 0.8 1026.3 23.9
2018-May-23 00:00N 29°50' W 044°14'1 1.2 1026.4 23.9
2018-May-22 23:00N 29°51' W 044°14'1 0.6 1026.0 24.1
2018-May-22 22:00N 29°52' W 044°14'1 0.8 1025.6 24.5
2018-May-22 21:00N 29°52' W 044°15'1 0.5 1025.4 24.6
2018-May-22 20:00N 29°52' W 044°16'1 0.8 1025.3 24.7
2018-May-22 19:00N 29°53' W 044°16'1 0.5 1025.5 24.9
2018-May-22 18:00N 29°53' W 044°17'1 0.5 1025.7 25.4
2018-May-22 17:00N 29°53' W 044°17'1 0.5 1025.8 25.5
2018-May-22 16:00N 29°53' W 044°18'1 0.6 1026.1 26.1
2018-May-22 15:00N 29°52' W 044°18'0 0.0 1026.2 26.1
2018-May-22 14:00N 29°52' W 044°18'1 0.6 1026.2 24.6
2018-May-22 13:00N 29°52' W 044°18'1 0.6 1026.2 24.5
2018-May-22 12:00N 29°51' W 044°18'1 0.5 1026.0 24.0
2018-May-22 11:00N 29°51' W 044°17'1 0.6 1025.8 23.7
2018-May-22 10:00N 29°50' W 044°17'1 0.5 1025.6 23.7
2018-May-22 09:00N 29°50' W 044°17'0 0.0 1025.1 23.6
2018-May-22 08:00N 29°50' W 044°17'1 0.5 1024.5 23.6
2018-May-22 07:00N 29°50' W 044°16'1 0.5 1024.3 23.7
2018-May-22 06:00N 29°50' W 044°16'1 0.8 1024.4 23.7
2018-May-22 05:00N 29°50' W 044°15'0 0.0 1024.6 23.8
2018-May-22 04:00N 29°50' W 044°15'1 0.5 1025.1 23.9
2018-May-22 03:00N 29°50' W 044°14'1 0.5 1025.7 24.0
2018-May-22 02:00N 29°50' W 044°14'1 0.5 1025.9 24.0
2018-May-22 01:00N 29°50' W 044°13'1 0.8 1026.2 24.6
2018-May-22 00:00N 29°50' W 044°13'1 0.5 1026.2 24.6
2018-May-21 23:00N 29°50' W 044°12'1 0.6 1025.6 24.9
2018-May-21 22:00N 29°51' W 044°12'1 0.8 1025.2 25.4
2018-May-21 21:00N 29°52' W 044°11'1 0.6 1024.6 26.0
2018-May-21 20:00N 29°52' W 044°11'0 0.0 1024.3 26.7
2018-May-21 19:00N 29°52' W 044°11'0 0.0 1024.3 27.4
2018-May-21 18:00N 29°52' W 044°11'0 0.0 1024.7 27.5
2018-May-21 17:00N 29°52' W 044°11'0 0.0 1025.0 27.2
2018-May-21 16:00N 29°52' W 044°11'0 0.0 1025.3 26.6
2018-May-21 15:00N 29°52' W 044°11'1 0.6 1025.7 25.2
2018-May-21 14:00N 29°52' W 044°11'1 0.6 1026.2 24.5
2018-May-21 13:00N 29°51' W 044°11'1 0.5 1026.3 24.2
2018-May-21 12:00N 29°51' W 044°11'1 0.8 1026.1 23.6
2018-May-21 11:00N 29°50' W 044°10'0 0.0 1026.3 23.4
2018-May-21 10:00N 29°50' W 044°10'1 0.5 1026.0 23.3
2018-May-21 09:00N 29°50' W 044°10'1 0.5 1025.7 23.3
2018-May-21 08:00N 29°50' W 044°09'0 0.0 1025.3 23.2
2018-May-21 07:00N 29°50' W 044°09'1 0.5 1025.2 23.3
2018-May-21 06:00N 29°50' W 044°08'0 0.0 1025.1 23.3
2018-May-21 05:00N 29°50' W 044°08'1 0.5 1025.4 23.4
2018-May-21 04:00N 29°50' W 044°08'0 0.0 1025.9 23.5
2018-May-21 03:00N 29°50' W 044°08'1 0.5 1026.5 23.4
2018-May-21 02:00N 29°50' W 044°07'1 0.6 1026.8 23.4
2018-May-21 01:00N 29°51' W 044°07'1 0.5 1027.2 23.6
2018-May-21 00:00N 29°51' W 044°07'0 0.0 1027.4 23.8
2018-May-20 23:00N 29°51' W 044°07'1 0.8 1027.1 23.9
2018-May-20 22:00N 29°52' W 044°06'0 0.0 1026.7 24.0
2018-May-20 21:00N 29°52' W 044°06'0 0.0 1026.3 24.2
2018-May-20 20:00N 29°52' W 044°06'1 0.5 1026.2 24.2
2018-May-20 19:00N 29°52' W 044°05'0 0.0 1026.3 24.3
2018-May-20 18:00N 29°52' W 044°05'0 0.0 1026.7 24.2
2018-May-20 17:00N 29°52' W 044°05'1 0.5 1026.9 24.2
2018-May-20 16:00N 29°52' W 044°05'1 0.6 1027.4 24.8
2018-May-20 15:00N 29°51' W 044°05'0 0.0 1028.1 24.3
2018-May-20 14:00N 29°51' W 044°05'1 0.5 1028.3 23.9
2018-May-20 13:00N 29°51' W 044°04'0 0.0 1028.4 23.7
2018-May-20 12:00N 29°51' W 044°04'1 0.5 1028.5 23.4
2018-May-20 11:00N 29°51' W 044°04'1 0.6 1028.5 23.4
2018-May-20 10:00N 29°50' W 044°04'1 0.8 1028.5 23.3
2018-May-20 09:00N 29°51' W 044°03'1 0.5 1028.1 23.4
2018-May-20 08:00N 29°51' W 044°02'0 0.0 1027.6 23.4
2018-May-20 07:00N 29°51' W 044°02'1 0.5 1027.4 23.4
2018-May-20 06:00N 29°51' W 044°02'1 0.8 1027.3 23.4
2018-May-20 05:00N 29°50' W 044°01'0 0.0 1027.4 23.4
2018-May-20 04:00N 29°50' W 044°01'1 0.5 1027.5 23.4
2018-May-20 03:00N 29°50' W 044°01'1 0.5 1028.1 23.5
2018-May-20 02:00N 29°50' W 044°00'0 0.0 1028.7 23.5
2018-May-20 01:00N 29°50' W 044°00'1 0.5 1029.1 23.5
2018-May-20 00:00N 29°50' W 043°59'0 0.0 1029.1 23.5
2018-May-19 23:00N 29°50' W 043°59'1 0.5 1028.6 23.6
2018-May-19 22:00N 29°50' W 043°59'0 0.0 1028.3 23.7
2018-May-19 21:00N 29°50' W 043°59'1 0.8 1028.1 23.7
2018-May-19 20:00N 29°50' W 043°58'0 0.0 1027.8 23.8
2018-May-19 19:00N 29°50' W 043°58'1 0.8 1027.9 23.8
2018-May-19 18:00N 29°49' W 043°58'1 0.5 1028.3 23.8
2018-May-19 17:00N 29°49' W 043°57'1 0.8 1028.5 23.8
2018-May-19 16:00N 29°49' W 043°56'1 0.5 1028.8 23.7
2018-May-19 15:00N 29°49' W 043°56'1 0.6 1028.8 23.6
2018-May-19 14:00N 29°48' W 043°56'1 0.5 1029.0 23.4
2018-May-19 13:00N 29°48' W 043°55'1 0.8 1028.8 23.3
2018-May-19 12:00N 29°47' W 043°55'1 0.5 1028.5 23.2
2018-May-19 11:00N 29°47' W 043°54'1 0.5 1028.3 23.2
2018-May-19 10:00N 29°47' W 043°53'0 0.0 1028.1 23.1
2018-May-19 09:00N 29°47' W 043°53'1 0.8 1027.8 23.2
2018-May-19 08:00N 29°47' W 043°53'1 0.5 1027.5 23.1
2018-May-19 07:00N 29°47' W 043°52'1 0.6 1027.5 23.1
2018-May-19 06:00N 29°47' W 043°52'0 0.0 1027.7 23.1
2018-May-19 05:00N 29°47' W 043°52'0 0.0 1027.7 23.1
2018-May-19 04:00N 29°47' W 043°52'1 0.6 1028.1 23.1
2018-May-19 03:00N 29°47' W 043°52'0 0.0 1028.4 23.1
2018-May-19 02:00N 29°47' W 043°52'0 0.0 1028.7 23.2
2018-May-19 01:00N 29°47' W 043°52'1 0.6 1028.7 23.2
2018-May-19 00:00N 29°46' W 043°52'1 0.6 1028.3 23.2
2018-May-18 23:00N 29°46' W 043°52'1 0.6 1027.8 23.1
2018-May-18 22:00N 29°45' W 043°52'1 0.5 1027.5 23.2
2018-May-18 21:00N 29°45' W 043°52'1 0.8 1027.2 23.2
2018-May-18 20:00N 29°44' W 043°51'1 0.6 1026.9 23.2
2018-May-18 19:00N 29°44' W 043°51'1 0.5 1027.1 23.3
2018-May-18 18:00N 29°44' W 043°50'1 0.8 1027.3 23.3
2018-May-18 17:00N 29°43' W 043°50'1 0.8 1027.5 23.3
2018-May-18 16:00N 29°43' W 043°49'1 0.8 1027.8 23.2
2018-May-18 15:00N 29°42' W 043°49'1 0.8 1027.9 23.1
2018-May-18 14:00N 29°41' W 043°48'1 0.8 1028.1 23.1
2018-May-18 13:00N 29°41' W 043°47'1 0.5 1028.0 23.0
2018-May-18 12:00N 29°41' W 043°47'1 0.5 1027.9 23.0
2018-May-18 11:00N 29°41' W 043°46'1 1.0 1027.8 23.0
2018-May-18 10:00N 29°41' W 043°45'1 1.0 1027.5 22.9
2018-May-18 09:00N 29°41' W 043°44'1 0.5 1027.4 22.9
2018-May-18 08:00N 29°41' W 043°43'1 0.8 1027.5 22.9
2018-May-18 07:00N 29°41' W 043°43'1 0.8 1027.1 22.9
2018-May-18 06:00N 29°42' W 043°42'1 0.6 1027.2 22.9
2018-May-18 05:00N 29°43' W 043°42'0 0.0 1027.3 23.0
2018-May-18 04:00N 29°43' W 043°42'1 0.6 1027.4 22.9
2018-May-18 03:00N 29°43' W 043°42'1 0.8 1027.9 22.9
2018-May-18 02:00N 29°43' W 043°41'0 0.0 1028.1 23.0
2018-May-18 01:00N 29°43' W 043°41'1 0.6 1028.1 23.0
2018-May-18 00:00N 29°42' W 043°41'1 0.6 1027.9 23.0
2018-May-17 23:00N 29°41' W 043°41'1 0.4 1027.6 23.0
2018-May-17 21:00N 29°41' W 043°41'1 0.5 1027.0 23.0
2018-May-17 20:00N 29°41' W 043°40'1 0.8 1026.6 23.0
2018-May-17 19:00N 29°40' W 043°40'1 0.5 1026.6 23.0
2018-May-17 18:00N 29°40' W 043°39'1 0.8 1026.7 23.0
2018-May-17 17:00N 29°40' W 043°38'1 0.5 1027.0 22.9
2018-May-17 16:00N 29°40' W 043°38'1 0.5 1027.1 22.9
2018-May-17 15:00N 29°40' W 043°37'1 0.8 1027.3 22.8
2018-May-17 14:00N 29°39' W 043°37'1 0.5 1027.5 22.7
2018-May-17 13:00N 29°39' W 043°36'1 0.8 1027.7 22.7
2018-May-17 12:00N 29°38' W 043°35'1 1.0 1027.4 22.6
2018-May-17 11:00N 29°38' W 043°34'1 0.8 1027.4 22.6
2018-May-17 10:00N 29°38' W 043°34'1 0.5 1027.2 22.6
2018-May-17 09:00N 29°38' W 043°33'1 0.5 1026.8 22.5
2018-May-17 08:00N 29°38' W 043°32'1 1.0 1026.4 22.6
2018-May-17 07:00N 29°38' W 043°31'1 0.6 1026.1 22.6
2018-May-17 05:00N 29°38' W 043°30'1 0.8 1026.8 22.7
2018-May-17 04:00N 29°39' W 043°29'1 0.5 1027.3 22.9
2018-May-17 03:00N 29°39' W 043°29'1 0.6 1027.5 22.8
2018-May-17 02:00N 29°40' W 043°29'1 0.5 1027.9 22.8
2018-May-17 01:00N 29°40' W 043°28'0 0.0 1028.2 22.7
2018-May-17 00:00N 29°40' W 043°28'1 0.6 1028.2 22.7
2018-May-16 23:00N 29°39' W 043°28'1 0.5 1027.7 22.7
2018-May-16 22:00N 29°39' W 043°28'1 0.6 1027.5 22.7
2018-May-16 21:00N 29°38' W 043°28'1 0.8 1027.0 22.8
2018-May-16 20:00N 29°38' W 043°27'1 0.5 1026.8 22.9
2018-May-16 19:00N 29°38' W 043°26'1 1.2 1027.1 23.0
2018-May-16 18:00N 29°37' W 043°25'1 0.5 1027.4 23.0
2018-May-16 17:00N 29°37' W 043°25'1 1.0 1027.8 23.0
2018-May-16 16:00N 29°37' W 043°23'1 1.0 1028.0 23.1
2018-May-16 15:00N 29°37' W 043°22'1 0.5 1028.2 23.0
2018-May-16 14:00N 29°37' W 043°22'1 1.0 1028.4 22.9
2018-May-16 13:00N 29°37' W 043°20'1 1.0 1028.3 22.7
2018-May-16 12:00N 29°37' W 043°19'1 0.8 1027.9 22.7
2018-May-16 11:00N 29°38' W 043°19'1 0.8 1027.7 22.7
2018-May-16 10:00N 29°38' W 043°18'1 0.5 1027.3 22.6
2018-May-16 09:00N 29°38' W 043°17'1 0.8 1027.0 22.7
2018-May-16 08:00N 29°39' W 043°17'1 0.6 1026.5 22.7
2018-May-16 07:00N 29°40' W 043°17'1 0.8 1026.4 22.7
2018-May-16 06:00N 29°40' W 043°16'0 0.0 1026.5 22.7
2018-May-16 05:00N 29°40' W 043°16'1 0.8 1026.9 22.7
2018-May-16 04:00N 29°41' W 043°16'1 0.6 1027.1 22.7
2018-May-16 03:00N 29°41' W 043°16'0 0.0 1027.6 22.8
2018-May-16 02:00N 29°41' W 043°16'0 0.0 1027.9 22.8
2018-May-16 01:00N 29°41' W 043°16'1 0.5 1028.0 22.9
2018-May-16 00:00N 29°41' W 043°15'0 0.0 1028.0 22.9
2018-May-15 23:00N 29°41' W 043°15'0 0.0 1027.5 22.9
2018-May-15 22:00N 29°41' W 043°15'0 0.0 1027.3 22.9
2018-May-15 21:00N 29°41' W 043°15'1 0.8 1026.9 23.0
2018-May-15 20:00N 29°41' W 043°14'1 0.6 1026.9 23.0
2018-May-15 19:00N 29°40' W 043°14'1 0.8 1026.8 23.1
2018-May-15 18:00N 29°40' W 043°14'1 0.5 1027.0 23.1
2018-May-15 17:00N 29°40' W 043°13'1 1.2 1026.9 23.1
2018-May-15 16:00N 29°39' W 043°12'1 0.5 1027.0 23.0
2018-May-15 15:00N 29°39' W 043°11'1 0.8 1026.9 23.0
2018-May-15 14:00N 29°38' W 043°11'1 1.2 1027.0 23.0
2018-May-15 13:00N 29°39' W 043°10'1 0.5 1027.0 22.8
2018-May-15 12:00N 29°39' W 043°09'1 1.2 1026.9 22.8
2018-May-15 11:00N 29°40' W 043°08'1 0.8 1026.6 22.7
2018-May-15 10:00N 29°40' W 043°07'1 0.5 1026.2 22.7
2018-May-15 09:00N 29°40' W 043°07'1 0.8 1025.8 22.6
2018-May-15 08:00N 29°41' W 043°06'1 0.8 1025.3 22.6
2018-May-15 07:00N 29°41' W 043°05'0 0.0 1024.8 22.6
2018-May-15 06:00N 29°41' W 043°05'1 0.8 1024.9 22.6
2018-May-15 05:00N 29°42' W 043°05'1 0.5 1025.2 22.6
2018-May-15 04:00N 29°42' W 043°04'0 0.0 1025.4 22.6
2018-May-15 03:00N 29°42' W 043°04'1 0.5 1025.5 22.7
2018-May-15 02:00N 29°42' W 043°04'1 0.8 1025.9 22.8
2018-May-15 01:00N 29°43' W 043°03'1 0.5 1025.8 22.8
2018-May-15 00:00N 29°43' W 043°02'1 0.6 1025.7 22.9
2018-May-14 23:00N 29°43' W 043°02'1 0.5 1025.2 22.9
2018-May-14 22:00N 29°43' W 043°02'0 0.0 1024.9 23.0
2018-May-14 21:00N 29°43' W 043°02'1 0.5 1024.5 23.1
2018-May-14 20:00N 29°43' W 043°01'0 0.0 1024.4 23.2
2018-May-14 19:00N 29°43' W 043°01'0 0.0 1024.3 23.0
2018-May-14 18:00N 29°43' W 043°01'1 0.5 1024.4 23.3
2018-May-14 17:00N 29°43' W 043°01'0 0.0 1024.8 23.2
2018-May-14 16:00N 29°43' W 043°01'1 0.8 1025.3 23.1
2018-May-14 15:00N 29°43' W 043°00'1 0.5 1025.4 22.9
2018-May-14 14:00N 29°43' W 042°59'0 0.0 1025.4 22.9
2018-May-14 13:00N 29°43' W 042°59'1 0.5 1025.2 22.8
2018-May-14 12:00N 29°43' W 042°59'0 0.0 1024.8 22.7
2018-May-14 11:00N 29°43' W 042°59'1 0.5 1024.7 22.7
2018-May-14 10:00N 29°43' W 042°58'1 0.5 1024.3 22.7
2018-May-14 09:00N 29°43' W 042°58'1 0.6 1024.0 22.7
2018-May-14 08:00N 29°43' W 042°58'1 0.5 1023.7 22.7
2018-May-14 07:00N 29°43' W 042°57'1 0.5 1023.4 22.7
2018-May-14 06:00N 29°43' W 042°56'1 0.8 1023.4 22.7
2018-May-14 05:00N 29°44' W 042°56'1 0.8 1023.3 22.7
2018-May-14 04:00N 29°44' W 042°55'0 0.0 1023.5 22.7
2018-May-14 03:00N 29°44' W 042°55'1 0.6 1024.1 22.7
2018-May-14 02:00N 29°45' W 042°55'0 0.0 1024.5 22.7
2018-May-14 01:00N 29°45' W 042°55'1 0.8 1024.6 22.8
2018-May-14 00:00N 29°46' W 042°56'0 0.0 1024.4 22.8
2018-May-13 23:00N 29°46' W 042°56'0 0.0 1024.3 22.9
2018-May-13 22:00N 29°46' W 042°56'1 0.6 1023.9 22.9
2018-May-13 21:00N 29°46' W 042°56'0 0.0 1023.6 23.0
2018-May-13 20:00N 29°46' W 042°56'1 0.5 1023.4 23.1
2018-May-13 19:00N 29°46' W 042°55'1 0.6 1023.5 23.1
2018-May-13 18:00N 29°47' W 042°55'1 0.5 1023.5 23.1
2018-May-13 17:00N 29°47' W 042°55'1 0.8 1023.9 23.3
2018-May-13 16:00N 29°47' W 042°54'0 0.0 1024.3 23.2
2018-May-13 15:00N 29°47' W 042°54'1 0.8 1024.5 22.9
2018-May-13 14:00N 29°48' W 042°53'1 0.6 1024.8 22.7
2018-May-13 13:00N 29°49' W 042°53'1 0.6 1024.8 22.6
2018-May-13 12:00N 29°49' W 042°53'1 0.6 1024.9 22.6
2018-May-13 11:00N 29°50' W 042°53'0 0.0 1024.7 22.6
2018-May-13 10:00N 29°50' W 042°53'1 0.6 1024.3 22.5
2018-May-13 09:00N 29°50' W 042°53'1 0.6 1023.9 22.5
2018-May-13 08:00N 29°51' W 042°53'1 0.5 1023.6 22.5
2018-May-13 07:00N 29°51' W 042°53'1 0.6 1023.5 22.5
2018-May-13 06:00N 29°52' W 042°53'1 0.8 1023.9 22.5
2018-May-13 05:00N 29°52' W 042°52'1 0.6 1024.2 22.5
2018-May-13 04:00N 29°53' W 042°52'1 1.2 1024.5 22.6
2018-May-13 03:00N 29°54' W 042°52'1 0.6 1024.9 22.6
2018-May-13 02:00N 29°55' W 042°52'1 0.6 1025.2 22.8
2018-May-13 01:00N 29°55' W 042°52'   1025.4 22.9
Track history (hours):
 
Tides and Currents Weather Stations Pressure Air Temp Water Temp Dewpoint Dewpoint Depression Visibility Wind Speed Wind Dir Waves Ship Positions

Drifting buoy 44746

Last reported at 2018-May-23 01:00 UTC. Time now 2018-May-23 01:33 UTC.
Position N 29°49' W 044°15'.

Barometer 1026.3 mb
Water temperature 23.9 ° C

Date/timePositionNaut miles runAvg speedWind from/ knotsBaromVisibWave heightAir tempDewpointWater temp
2018-May-23 01:00N 29°49' W 044°15'1 0.8 1026.3 23.9
2018-May-23 00:00N 29°50' W 044°14'1 1.2 1026.4 23.9
2018-May-22 23:00N 29°51' W 044°14'1 0.6 1026.0 24.1
2018-May-22 22:00N 29°52' W 044°14'1 0.8 1025.6 24.5
2018-May-22 21:00N 29°52' W 044°15'1 0.5 1025.4 24.6
2018-May-22 20:00N 29°52' W 044°16'1 0.8 1025.3 24.7
2018-May-22 19:00N 29°53' W 044°16'1 0.5 1025.5 24.9
2018-May-22 18:00N 29°53' W 044°17'1 0.5 1025.7 25.4
2018-May-22 17:00N 29°53' W 044°17'1 0.5 1025.8 25.5
2018-May-22 16:00N 29°53' W 044°18'1 0.6 1026.1 26.1
2018-May-22 15:00N 29°52' W 044°18'0 0.0 1026.2 26.1
2018-May-22 14:00N 29°52' W 044°18'1 0.6 1026.2 24.6
2018-May-22 13:00N 29°52' W 044°18'1 0.6 1026.2 24.5
2018-May-22 12:00N 29°51' W 044°18'1 0.5 1026.0 24.0
2018-May-22 11:00N 29°51' W 044°17'1 0.6 1025.8 23.7
2018-May-22 10:00N 29°50' W 044°17'1 0.5 1025.6 23.7
2018-May-22 09:00N 29°50' W 044°17'0 0.0 1025.1 23.6
2018-May-22 08:00N 29°50' W 044°17'1 0.5 1024.5 23.6
2018-May-22 07:00N 29°50' W 044°16'1 0.5 1024.3 23.7
2018-May-22 06:00N 29°50' W 044°16'1 0.8 1024.4 23.7
2018-May-22 05:00N 29°50' W 044°15'0 0.0 1024.6 23.8
2018-May-22 04:00N 29°50' W 044°15'1 0.5 1025.1 23.9
2018-May-22 03:00N 29°50' W 044°14'1 0.5 1025.7 24.0
2018-May-22 02:00N 29°50' W 044°14'1 0.5 1025.9 24.0
2018-May-22 01:00N 29°50' W 044°13'1 0.8 1026.2 24.6
2018-May-22 00:00N 29°50' W 044°13'1 0.5 1026.2 24.6
2018-May-21 23:00N 29°50' W 044°12'1 0.6 1025.6 24.9
2018-May-21 22:00N 29°51' W 044°12'1 0.8 1025.2 25.4
2018-May-21 21:00N 29°52' W 044°11'1 0.6 1024.6 26.0
2018-May-21 20:00N 29°52' W 044°11'0 0.0 1024.3 26.7
2018-May-21 19:00N 29°52' W 044°11'0 0.0 1024.3 27.4
2018-May-21 18:00N 29°52' W 044°11'0 0.0 1024.7 27.5
2018-May-21 17:00N 29°52' W 044°11'0 0.0 1025.0 27.2
2018-May-21 16:00N 29°52' W 044°11'0 0.0 1025.3 26.6
2018-May-21 15:00N 29°52' W 044°11'1 0.6 1025.7 25.2
2018-May-21 14:00N 29°52' W 044°11'1 0.6 1026.2 24.5
2018-May-21 13:00N 29°51' W 044°11'1 0.5 1026.3 24.2
2018-May-21 12:00N 29°51' W 044°11'1 0.8 1026.1 23.6
2018-May-21 11:00N 29°50' W 044°10'0 0.0 1026.3 23.4
2018-May-21 10:00N 29°50' W 044°10'1 0.5 1026.0 23.3
2018-May-21 09:00N 29°50' W 044°10'1 0.5 1025.7 23.3
2018-May-21 08:00N 29°50' W 044°09'0 0.0 1025.3 23.2
2018-May-21 07:00N 29°50' W 044°09'1 0.5 1025.2 23.3
2018-May-21 06:00N 29°50' W 044°08'0 0.0 1025.1 23.3
2018-May-21 05:00N 29°50' W 044°08'1 0.5 1025.4 23.4
2018-May-21 04:00N 29°50' W 044°08'0 0.0 1025.9 23.5
2018-May-21 03:00N 29°50' W 044°08'1 0.5 1026.5 23.4
2018-May-21 02:00N 29°50' W 044°07'1 0.6 1026.8 23.4
2018-May-21 01:00N 29°51' W 044°07'1 0.5 1027.2 23.6
2018-May-21 00:00N 29°51' W 044°07'0 0.0 1027.4 23.8
2018-May-20 23:00N 29°51' W 044°07'1 0.8 1027.1 23.9
2018-May-20 22:00N 29°52' W 044°06'0 0.0 1026.7 24.0
2018-May-20 21:00N 29°52' W 044°06'0 0.0 1026.3 24.2
2018-May-20 20:00N 29°52' W 044°06'1 0.5 1026.2 24.2
2018-May-20 19:00N 29°52' W 044°05'0 0.0 1026.3 24.3
2018-May-20 18:00N 29°52' W 044°05'0 0.0 1026.7 24.2
2018-May-20 17:00N 29°52' W 044°05'1 0.5 1026.9 24.2
2018-May-20 16:00N 29°52' W 044°05'1 0.6 1027.4 24.8
2018-May-20 15:00N 29°51' W 044°05'0 0.0 1028.1 24.3
2018-May-20 14:00N 29°51' W 044°05'1 0.5 1028.3 23.9
2018-May-20 13:00N 29°51' W 044°04'0 0.0 1028.4 23.7
2018-May-20 12:00N 29°51' W 044°04'1 0.5 1028.5 23.4
2018-May-20 11:00N 29°51' W 044°04'1 0.6 1028.5 23.4
2018-May-20 10:00N 29°50' W 044°04'1 0.8 1028.5 23.3
2018-May-20 09:00N 29°51' W 044°03'1 0.5 1028.1 23.4
2018-May-20 08:00N 29°51' W 044°02'0 0.0 1027.6 23.4
2018-May-20 07:00N 29°51' W 044°02'1 0.5 1027.4 23.4
2018-May-20 06:00N 29°51' W 044°02'1 0.8 1027.3 23.4
2018-May-20 05:00N 29°50' W 044°01'0 0.0 1027.4 23.4
2018-May-20 04:00N 29°50' W 044°01'1 0.5 1027.5 23.4
2018-May-20 03:00N 29°50' W 044°01'1 0.5 1028.1 23.5
2018-May-20 02:00N 29°50' W 044°00'0 0.0 1028.7 23.5
2018-May-20 01:00N 29°50' W 044°00'1 0.5 1029.1 23.5
2018-May-20 00:00N 29°50' W 043°59'0 0.0 1029.1 23.5
2018-May-19 23:00N 29°50' W 043°59'1 0.5 1028.6 23.6
2018-May-19 22:00N 29°50' W 043°59'0 0.0 1028.3 23.7
2018-May-19 21:00N 29°50' W 043°59'1 0.8 1028.1 23.7
2018-May-19 20:00N 29°50' W 043°58'0 0.0 1027.8 23.8
2018-May-19 19:00N 29°50' W 043°58'1 0.8 1027.9 23.8
2018-May-19 18:00N 29°49' W 043°58'1 0.5 1028.3 23.8
2018-May-19 17:00N 29°49' W 043°57'1 0.8 1028.5 23.8
2018-May-19 16:00N 29°49' W 043°56'1 0.5 1028.8 23.7
2018-May-19 15:00N 29°49' W 043°56'1 0.6 1028.8 23.6
2018-May-19 14:00N 29°48' W 043°56'1 0.5 1029.0 23.4
2018-May-19 13:00N 29°48' W 043°55'1 0.8 1028.8 23.3
2018-May-19 12:00N 29°47' W 043°55'1 0.5 1028.5 23.2
2018-May-19 11:00N 29°47' W 043°54'1 0.5 1028.3 23.2
2018-May-19 10:00N 29°47' W 043°53'0 0.0 1028.1 23.1
2018-May-19 09:00N 29°47' W 043°53'1 0.8 1027.8 23.2
2018-May-19 08:00N 29°47' W 043°53'1 0.5 1027.5 23.1
2018-May-19 07:00N 29°47' W 043°52'1 0.6 1027.5 23.1
2018-May-19 06:00N 29°47' W 043°52'0 0.0 1027.7 23.1
2018-May-19 05:00N 29°47' W 043°52'0 0.0 1027.7 23.1
2018-May-19 04:00N 29°47' W 043°52'1 0.6 1028.1 23.1
2018-May-19 03:00N 29°47' W 043°52'0 0.0 1028.4 23.1
2018-May-19 02:00N 29°47' W 043°52'0 0.0 1028.7 23.2
2018-May-19 01:00N 29°47' W 043°52'1 0.6 1028.7 23.2
2018-May-19 00:00N 29°46' W 043°52'1 0.6 1028.3 23.2
2018-May-18 23:00N 29°46' W 043°52'1 0.6 1027.8 23.1
2018-May-18 22:00N 29°45' W 043°52'1 0.5 1027.5 23.2
2018-May-18 21:00N 29°45' W 043°52'1 0.8 1027.2 23.2
2018-May-18 20:00N 29°44' W 043°51'1 0.6 1026.9 23.2
2018-May-18 19:00N 29°44' W 043°51'1 0.5 1027.1 23.3
2018-May-18 18:00N 29°44' W 043°50'1 0.8 1027.3 23.3
2018-May-18 17:00N 29°43' W 043°50'1 0.8 1027.5 23.3
2018-May-18 16:00N 29°43' W 043°49'1 0.8 1027.8 23.2
2018-May-18 15:00N 29°42' W 043°49'1 0.8 1027.9 23.1
2018-May-18 14:00N 29°41' W 043°48'1 0.8 1028.1 23.1
2018-May-18 13:00N 29°41' W 043°47'1 0.5 1028.0 23.0
2018-May-18 12:00N 29°41' W 043°47'1 0.5 1027.9 23.0
2018-May-18 11:00N 29°41' W 043°46'1 1.0 1027.8 23.0
2018-May-18 10:00N 29°41' W 043°45'1 1.0 1027.5 22.9
2018-May-18 09:00N 29°41' W 043°44'1 0.5 1027.4 22.9
2018-May-18 08:00N 29°41' W 043°43'1 0.8 1027.5 22.9
2018-May-18 07:00N 29°41' W 043°43'1 0.8 1027.1 22.9
2018-May-18 06:00N 29°42' W 043°42'1 0.6 1027.2 22.9
2018-May-18 05:00N 29°43' W 043°42'0 0.0 1027.3 23.0
2018-May-18 04:00N 29°43' W 043°42'1 0.6 1027.4 22.9
2018-May-18 03:00N 29°43' W 043°42'1 0.8 1027.9 22.9
2018-May-18 02:00N 29°43' W 043°41'0 0.0 1028.1 23.0
2018-May-18 01:00N 29°43' W 043°41'1 0.6 1028.1 23.0
2018-May-18 00:00N 29°42' W 043°41'1 0.6 1027.9 23.0
2018-May-17 23:00N 29°41' W 043°41'1 0.4 1027.6 23.0
2018-May-17 21:00N 29°41' W 043°41'1 0.5 1027.0 23.0
2018-May-17 20:00N 29°41' W 043°40'1 0.8 1026.6 23.0
2018-May-17 19:00N 29°40' W 043°40'1 0.5 1026.6 23.0
2018-May-17 18:00N 29°40' W 043°39'1 0.8 1026.7 23.0
2018-May-17 17:00N 29°40' W 043°38'1 0.5 1027.0 22.9
2018-May-17 16:00N 29°40' W 043°38'1 0.5 1027.1 22.9
2018-May-17 15:00N 29°40' W 043°37'1 0.8 1027.3 22.8
2018-May-17 14:00N 29°39' W 043°37'1 0.5 1027.5 22.7
2018-May-17 13:00N 29°39' W 043°36'1 0.8 1027.7 22.7
2018-May-17 12:00N 29°38' W 043°35'1 1.0 1027.4 22.6
2018-May-17 11:00N 29°38' W 043°34'1 0.8 1027.4 22.6
2018-May-17 10:00N 29°38' W 043°34'1 0.5 1027.2 22.6
2018-May-17 09:00N 29°38' W 043°33'1 0.5 1026.8 22.5
2018-May-17 08:00N 29°38' W 043°32'1 1.0 1026.4 22.6
2018-May-17 07:00N 29°38' W 043°31'1 0.6 1026.1 22.6
2018-May-17 05:00N 29°38' W 043°30'1 0.8 1026.8 22.7
2018-May-17 04:00N 29°39' W 043°29'1 0.5 1027.3 22.9
2018-May-17 03:00N 29°39' W 043°29'1 0.6 1027.5 22.8
2018-May-17 02:00N 29°40' W 043°29'1 0.5 1027.9 22.8
2018-May-17 01:00N 29°40' W 043°28'0 0.0 1028.2 22.7
2018-May-17 00:00N 29°40' W 043°28'1 0.6 1028.2 22.7
2018-May-16 23:00N 29°39' W 043°28'1 0.5 1027.7 22.7
2018-May-16 22:00N 29°39' W 043°28'1 0.6 1027.5 22.7
2018-May-16 21:00N 29°38' W 043°28'1 0.8 1027.0 22.8
2018-May-16 20:00N 29°38' W 043°27'1 0.5 1026.8 22.9
2018-May-16 19:00N 29°38' W 043°26'1 1.2 1027.1 23.0
2018-May-16 18:00N 29°37' W 043°25'1 0.5 1027.4 23.0
2018-May-16 17:00N 29°37' W 043°25'1 1.0 1027.8 23.0
2018-May-16 16:00N 29°37' W 043°23'1 1.0 1028.0 23.1
2018-May-16 15:00N 29°37' W 043°22'1 0.5 1028.2 23.0
2018-May-16 14:00N 29°37' W 043°22'1 1.0 1028.4 22.9
2018-May-16 13:00N 29°37' W 043°20'1 1.0 1028.3 22.7
2018-May-16 12:00N 29°37' W 043°19'1 0.8 1027.9 22.7
2018-May-16 11:00N 29°38' W 043°19'1 0.8 1027.7 22.7
2018-May-16 10:00N 29°38' W 043°18'1 0.5 1027.3 22.6
2018-May-16 09:00N 29°38' W 043°17'1 0.8 1027.0 22.7
2018-May-16 08:00N 29°39' W 043°17'1 0.6 1026.5 22.7
2018-May-16 07:00N 29°40' W 043°17'1 0.8 1026.4 22.7
2018-May-16 06:00N 29°40' W 043°16'0 0.0 1026.5 22.7
2018-May-16 05:00N 29°40' W 043°16'1 0.8 1026.9 22.7
2018-May-16 04:00N 29°41' W 043°16'1 0.6 1027.1 22.7
2018-May-16 03:00N 29°41' W 043°16'0 0.0 1027.6 22.8
2018-May-16 02:00N 29°41' W 043°16'0 0.0 1027.9 22.8
2018-May-16 01:00N 29°41' W 043°16'1 0.5 1028.0 22.9
2018-May-16 00:00N 29°41' W 043°15'0 0.0 1028.0 22.9
2018-May-15 23:00N 29°41' W 043°15'0 0.0 1027.5 22.9
2018-May-15 22:00N 29°41' W 043°15'0 0.0 1027.3 22.9
2018-May-15 21:00N 29°41' W 043°15'1 0.8 1026.9 23.0
2018-May-15 20:00N 29°41' W 043°14'1 0.6 1026.9 23.0
2018-May-15 19:00N 29°40' W 043°14'1 0.8 1026.8 23.1
2018-May-15 18:00N 29°40' W 043°14'1 0.5 1027.0 23.1
2018-May-15 17:00N 29°40' W 043°13'1 1.2 1026.9 23.1
2018-May-15 16:00N 29°39' W 043°12'1 0.5 1027.0 23.0
2018-May-15 15:00N 29°39' W 043°11'1 0.8 1026.9 23.0
2018-May-15 14:00N 29°38' W 043°11'1 1.2 1027.0 23.0
2018-May-15 13:00N 29°39' W 043°10'1 0.5 1027.0 22.8
2018-May-15 12:00N 29°39' W 043°09'1 1.2 1026.9 22.8
2018-May-15 11:00N 29°40' W 043°08'1 0.8 1026.6 22.7
2018-May-15 10:00N 29°40' W 043°07'1 0.5 1026.2 22.7
2018-May-15 09:00N 29°40' W 043°07'1 0.8 1025.8 22.6
2018-May-15 08:00N 29°41' W 043°06'1 0.8 1025.3 22.6
2018-May-15 07:00N 29°41' W 043°05'0 0.0 1024.8 22.6
2018-May-15 06:00N 29°41' W 043°05'1 0.8 1024.9 22.6
2018-May-15 05:00N 29°42' W 043°05'1 0.5 1025.2 22.6
2018-May-15 04:00N 29°42' W 043°04'0 0.0 1025.4 22.6
2018-May-15 03:00N 29°42' W 043°04'1 0.5 1025.5 22.7
2018-May-15 02:00N 29°42' W 043°04'1 0.8 1025.9 22.8
2018-May-15 01:00N 29°43' W 043°03'1 0.5 1025.8 22.8
2018-May-15 00:00N 29°43' W 043°02'1 0.6 1025.7 22.9
2018-May-14 23:00N 29°43' W 043°02'1 0.5 1025.2 22.9
2018-May-14 22:00N 29°43' W 043°02'0 0.0 1024.9 23.0
2018-May-14 21:00N 29°43' W 043°02'1 0.5 1024.5 23.1
2018-May-14 20:00N 29°43' W 043°01'0 0.0 1024.4 23.2
2018-May-14 19:00N 29°43' W 043°01'0 0.0 1024.3 23.0
2018-May-14 18:00N 29°43' W 043°01'1 0.5 1024.4 23.3
2018-May-14 17:00N 29°43' W 043°01'0 0.0 1024.8 23.2
2018-May-14 16:00N 29°43' W 043°01'1 0.8 1025.3 23.1
2018-May-14 15:00N 29°43' W 043°00'1 0.5 1025.4 22.9
2018-May-14 14:00N 29°43' W 042°59'0 0.0 1025.4 22.9
2018-May-14 13:00N 29°43' W 042°59'1 0.5 1025.2 22.8
2018-May-14 12:00N 29°43' W 042°59'0 0.0 1024.8 22.7
2018-May-14 11:00N 29°43' W 042°59'1 0.5 1024.7 22.7
2018-May-14 10:00N 29°43' W 042°58'1 0.5 1024.3 22.7
2018-May-14 09:00N 29°43' W 042°58'1 0.6 1024.0 22.7
2018-May-14 08:00N 29°43' W 042°58'1 0.5 1023.7 22.7
2018-May-14 07:00N 29°43' W 042°57'1 0.5 1023.4 22.7
2018-May-14 06:00N 29°43' W 042°56'1 0.8 1023.4 22.7
2018-May-14 05:00N 29°44' W 042°56'1 0.8 1023.3 22.7
2018-May-14 04:00N 29°44' W 042°55'0 0.0 1023.5 22.7
2018-May-14 03:00N 29°44' W 042°55'1 0.6 1024.1 22.7
2018-May-14 02:00N 29°45' W 042°55'0 0.0 1024.5 22.7
2018-May-14 01:00N 29°45' W 042°55'1 0.8 1024.6 22.8
2018-May-14 00:00N 29°46' W 042°56'0 0.0 1024.4 22.8
2018-May-13 23:00N 29°46' W 042°56'0 0.0 1024.3 22.9
2018-May-13 22:00N 29°46' W 042°56'1 0.6 1023.9 22.9
2018-May-13 21:00N 29°46' W 042°56'0 0.0 1023.6 23.0
2018-May-13 20:00N 29°46' W 042°56'1 0.5 1023.4 23.1
2018-May-13 19:00N 29°46' W 042°55'1 0.6 1023.5 23.1
2018-May-13 18:00N 29°47' W 042°55'1 0.5 1023.5 23.1
2018-May-13 17:00N 29°47' W 042°55'1 0.8 1023.9 23.3
2018-May-13 16:00N 29°47' W 042°54'0 0.0 1024.3 23.2
2018-May-13 15:00N 29°47' W 042°54'1 0.8 1024.5 22.9
2018-May-13 14:00N 29°48' W 042°53'1 0.6 1024.8 22.7
2018-May-13 13:00N 29°49' W 042°53'1 0.6 1024.8 22.6
2018-May-13 12:00N 29°49' W 042°53'1 0.6 1024.9 22.6
2018-May-13 11:00N 29°50' W 042°53'0 0.0 1024.7 22.6
2018-May-13 10:00N 29°50' W 042°53'1 0.6 1024.3 22.5
2018-May-13 09:00N 29°50' W 042°53'1 0.6 1023.9 22.5
2018-May-13 08:00N 29°51' W 042°53'1 0.5 1023.6 22.5
2018-May-13 07:00N 29°51' W 042°53'1 0.6 1023.5 22.5
2018-May-13 06:00N 29°52' W 042°53'1 0.8 1023.9 22.5
2018-May-13 05:00N 29°52' W 042°52'1 0.6 1024.2 22.5
2018-May-13 04:00N 29°53' W 042°52'1 1.2 1024.5 22.6
2018-May-13 03:00N 29°54' W 042°52'1 0.6 1024.9 22.6
2018-May-13 02:00N 29°55' W 042°52'1 0.6 1025.2 22.8
2018-May-13 01:00N 29°55' W 042°52'   1025.4 22.9

Dump ship's entire track history